createdAt,value
2019-03-06T00:01:27.402Z,2.79
2019-03-06T00:03:57.875Z,2.82
2019-03-06T00:06:28.367Z,2.80
2019-03-06T00:08:58.829Z,2.75
2019-03-06T00:11:29.235Z,2.73
2019-03-06T00:13:59.705Z,2.74
2019-03-06T00:16:30.120Z,2.76
2019-03-06T00:19:00.578Z,2.79
2019-03-06T00:21:31.085Z,2.77
2019-03-06T00:24:01.609Z,2.73
2019-03-06T00:26:32.119Z,2.68
2019-03-06T00:29:03.654Z,2.71
2019-03-06T00:31:34.081Z,2.71
2019-03-06T00:34:04.619Z,2.69
2019-03-06T00:36:35.129Z,2.69
2019-03-06T00:39:07.102Z,2.71
2019-03-06T00:41:39.996Z,2.69
2019-03-06T00:44:10.466Z,2.66
2019-03-06T00:46:40.895Z,2.57
2019-03-06T00:49:17.151Z,2.61
2019-03-06T00:51:49.017Z,2.61
2019-03-06T00:54:19.481Z,2.67
2019-03-06T00:56:49.893Z,2.64
2019-03-06T00:59:20.342Z,2.60
2019-03-06T01:01:52.942Z,2.57
2019-03-06T01:04:31.958Z,2.55
2019-03-06T01:07:03.595Z,2.52
2019-03-06T01:09:34.348Z,2.55
2019-03-06T01:12:04.846Z,2.49
2019-03-06T01:14:35.327Z,2.49
2019-03-06T01:17:05.764Z,2.43
2019-03-06T01:19:36.229Z,2.42
2019-03-06T01:22:06.727Z,2.38
2019-03-06T01:24:37.417Z,2.37
2019-03-06T01:27:07.900Z,2.34
2019-03-06T01:29:38.358Z,2.29
2019-03-06T01:32:08.800Z,2.30
2019-03-06T01:34:40.887Z,2.28
2019-03-06T01:37:12.967Z,2.29
2019-03-06T01:39:47.849Z,2.24
2019-03-06T01:42:20.008Z,2.25
2019-03-06T01:44:50.473Z,2.21
2019-03-06T01:47:20.939Z,2.16
2019-03-06T01:49:51.399Z,2.14
2019-03-06T01:52:21.843Z,2.15
2019-03-06T01:54:52.316Z,2.14
2019-03-06T01:57:22.739Z,2.11
2019-03-06T01:59:53.287Z,2.13
2019-03-06T02:02:23.796Z,2.12
2019-03-06T02:04:54.260Z,2.13
2019-03-06T02:07:25.070Z,2.13
2019-03-06T02:09:55.532Z,2.09
2019-03-06T02:12:25.966Z,2.05
2019-03-06T02:14:56.433Z,1.98
2019-03-06T02:17:26.872Z,2.00
2019-03-06T02:19:57.779Z,1.93
2019-03-06T02:22:28.212Z,1.94
2019-03-06T02:24:58.756Z,1.91
2019-03-06T02:27:29.251Z,1.84
2019-03-06T02:29:59.991Z,1.83
2019-03-06T02:32:30.434Z,1.82
2019-03-06T02:35:00.889Z,1.78
2019-03-06T02:37:31.395Z,1.75
2019-03-06T02:40:01.918Z,1.74
2019-03-06T02:42:32.596Z,1.69
2019-03-06T02:45:03.059Z,1.59
2019-03-06T02:47:34.558Z,1.57
2019-03-06T02:50:07.767Z,1.51
2019-03-06T02:52:38.280Z,1.46
2019-03-06T02:55:11.365Z,1.45
2019-03-06T02:57:46.472Z,1.35
2019-03-06T03:00:36.956Z,1.37
2019-03-06T03:03:25.509Z,1.29
2019-03-06T03:06:00.483Z,1.27
2019-03-06T03:08:31.214Z,1.31
2019-03-06T03:11:01.678Z,1.34
2019-03-06T03:13:32.180Z,1.31
2019-03-06T03:16:02.713Z,1.36
2019-03-06T03:18:33.293Z,1.29
2019-03-06T03:21:04.733Z,1.26
2019-03-06T03:23:35.174Z,1.29
2019-03-06T03:26:05.662Z,1.22
2019-03-06T03:28:36.100Z,1.21
2019-03-06T03:31:06.574Z,1.25
2019-03-06T03:33:37.013Z,1.27
2019-03-06T03:36:07.471Z,1.29
2019-03-06T03:38:37.920Z,1.28
2019-03-06T03:41:08.469Z,1.31
2019-03-06T03:43:39.565Z,1.34
2019-03-06T03:46:10.272Z,1.30
2019-03-06T03:48:40.721Z,1.38
2019-03-06T03:51:11.196Z,1.34
2019-03-06T03:53:41.646Z,1.34
2019-03-06T03:56:12.108Z,1.34
2019-03-06T03:58:42.538Z,1.27
2019-03-06T04:01:13.014Z,1.28
2019-03-06T04:03:43.449Z,1.28
2019-03-06T04:06:13.982Z,1.29
2019-03-06T04:08:44.488Z,1.33
2019-03-06T04:11:14.950Z,1.36
2019-03-06T04:13:45.403Z,1.30
2019-03-06T04:16:15.852Z,1.18
2019-03-06T04:18:46.675Z,1.16
2019-03-06T04:21:17.125Z,1.11
2019-03-06T04:23:47.557Z,1.05
2019-03-06T04:26:18.026Z,1.03
2019-03-06T04:28:48.471Z,0.96
2019-03-06T04:31:19.100Z,0.89
2019-03-06T04:33:49.547Z,0.78
2019-03-06T04:36:20.020Z,0.81
2019-03-06T04:38:50.449Z,0.74
2019-03-06T04:41:21.992Z,0.75
2019-03-06T04:43:53.860Z,0.66
2019-03-06T04:46:24.324Z,0.55
2019-03-06T04:48:54.745Z,0.55
2019-03-06T04:51:25.212Z,0.55
2019-03-06T04:53:55.712Z,0.47
2019-03-06T04:56:26.168Z,0.49
2019-03-06T04:58:56.608Z,0.53
2019-03-06T05:01:37.577Z,0.52
2019-03-06T05:04:08.083Z,0.55
2019-03-06T05:06:38.550Z,0.53
2019-03-06T05:09:08.977Z,0.50
2019-03-06T05:11:39.443Z,0.49
2019-03-06T05:14:10.050Z,0.52
2019-03-06T05:16:42.161Z,0.51
2019-03-06T05:19:12.714Z,0.47
2019-03-06T05:21:43.520Z,0.41
2019-03-06T05:24:13.945Z,0.35
2019-03-06T05:26:44.430Z,0.31
2019-03-06T05:29:14.938Z,0.27
2019-03-06T05:32:21.794Z,0.21
2019-03-06T05:34:52.246Z,0.18
2019-03-06T05:37:40.812Z,0.21
2019-03-06T05:40:11.514Z,0.37
2019-03-06T05:42:41.998Z,0.31
2019-03-06T05:45:12.749Z,0.36
2019-03-06T05:47:43.225Z,0.36
2019-03-06T05:50:14.645Z,0.35
2019-03-06T05:52:45.241Z,0.48
2019-03-06T05:55:15.676Z,0.45
2019-03-06T05:57:46.146Z,0.52
2019-03-06T06:00:19.160Z,0.60
2019-03-06T06:02:49.648Z,0.62
2019-03-06T06:05:23.107Z,0.71
2019-03-06T06:07:53.880Z,0.76
2019-03-06T06:10:24.302Z,0.92
2019-03-06T06:12:54.853Z,1.01
2019-03-06T06:15:25.295Z,1.10
2019-03-06T06:17:56.297Z,1.22
2019-03-06T06:20:26.896Z,1.33
2019-03-06T06:23:01.747Z,1.36
2019-03-06T06:25:33.804Z,1.43
2019-03-06T06:28:04.294Z,1.52
2019-03-06T06:30:34.920Z,1.62
2019-03-06T06:33:05.466Z,1.72
2019-03-06T06:35:35.959Z,1.76
2019-03-06T06:38:07.489Z,1.79
2019-03-06T06:40:37.914Z,1.83
2019-03-06T06:43:09.395Z,1.88
2019-03-06T06:45:39.900Z,1.92
2019-03-06T06:48:21.246Z,1.95
2019-03-06T06:51:02.589Z,1.99
2019-03-06T06:53:45.303Z,2.05
2019-03-06T06:56:31.050Z,2.12
2019-03-06T06:59:04.786Z,2.22
2019-03-06T07:02:08.613Z,2.35
2019-03-06T07:05:02.927Z,2.45
2019-03-06T07:07:38.257Z,2.54
2019-03-06T07:10:22.450Z,2.63
2019-03-06T07:13:12.689Z,2.69
2019-03-06T07:16:01.193Z,2.73
2019-03-06T07:18:33.354Z,2.73
2019-03-06T07:21:11.663Z,2.83
2019-03-06T07:23:49.633Z,2.89
2019-03-06T07:26:38.241Z,2.98
2019-03-06T07:29:16.552Z,3.10
2019-03-06T07:31:48.684Z,3.18
2019-03-06T07:34:32.921Z,3.28
2019-03-06T07:37:05.201Z,3.36
2019-03-06T07:39:37.414Z,3.51
2019-03-06T07:42:21.418Z,3.64
2019-03-06T07:45:21.191Z,3.76
2019-03-06T07:47:53.356Z,3.84
2019-03-06T07:50:25.458Z,3.92
2019-03-06T07:53:19.929Z,4.01
2019-03-06T07:55:52.105Z,4.05
2019-03-06T07:58:50.568Z,4.11
2019-03-06T08:01:22.455Z,4.17
2019-03-06T08:04:02.683Z,4.23
2019-03-06T08:06:33.236Z,4.27
2019-03-06T08:09:04.123Z,4.31
2019-03-06T08:11:53.886Z,4.34
2019-03-06T08:14:31.628Z,4.37
2019-03-06T08:17:06.729Z,4.41
2019-03-06T08:19:47.364Z,4.44
2019-03-06T08:22:19.655Z,4.46
2019-03-06T08:24:54.668Z,4.51
2019-03-06T08:27:26.145Z,4.55
2019-03-06T08:29:56.583Z,4.60
2019-03-06T08:32:28.690Z,4.66
2019-03-06T08:35:00.245Z,4.73
2019-03-06T08:37:30.832Z,4.78
2019-03-06T08:40:01.271Z,4.82
2019-03-06T08:42:32.996Z,4.92
2019-03-06T08:45:04.169Z,4.97
2019-03-06T08:47:40.277Z,5.07
2019-03-06T08:50:18.203Z,5.17
2019-03-06T08:52:50.397Z,5.29
2019-03-06T08:55:40.660Z,5.43
2019-03-06T08:58:18.619Z,5.53
2019-03-06T09:00:50.705Z,5.66
2019-03-06T09:03:26.865Z,5.72
2019-03-06T09:06:08.040Z,5.79
2019-03-06T09:08:56.356Z,5.90
2019-03-06T09:11:37.208Z,6.00
2019-03-06T09:14:26.019Z,6.07
2019-03-06T09:17:03.926Z,6.14
2019-03-06T09:19:49.566Z,6.32
2019-03-06T09:22:21.725Z,6.44
2019-03-06T09:24:56.853Z,6.54
2019-03-06T09:27:34.767Z,6.63
2019-03-06T09:30:16.028Z,6.72
2019-03-06T09:32:48.818Z,6.83
2019-03-06T09:35:33.094Z,6.89
2019-03-06T09:38:22.991Z,6.93
2019-03-06T09:41:10.820Z,6.98
2019-03-06T09:43:48.638Z,7.06
2019-03-06T09:46:23.689Z,7.11
2019-03-06T09:48:56.060Z,7.15
2019-03-06T09:51:31.059Z,7.21
2019-03-06T09:54:03.120Z,7.27
2019-03-06T09:56:35.307Z,7.31
2019-03-06T09:59:07.569Z,7.46
2019-03-06T10:01:55.576Z,7.56
2019-03-06T10:04:34.328Z,7.69
2019-03-06T10:07:18.478Z,7.87
2019-03-06T10:10:08.764Z,7.96
2019-03-06T10:12:51.236Z,8.15
2019-03-06T10:15:32.046Z,8.24
2019-03-06T10:18:04.162Z,8.36
2019-03-06T10:20:34.614Z,8.40
2019-03-06T10:23:05.152Z,8.51
2019-03-06T10:25:36.583Z,8.57
2019-03-06T10:28:07.118Z,8.56
2019-03-06T10:30:37.637Z,8.69
2019-03-06T10:33:08.176Z,8.73
2019-03-06T10:35:38.676Z,8.82
2019-03-06T10:38:16.442Z,8.94
2019-03-06T10:40:41.569Z,9.04
2019-03-06T10:43:12.410Z,9.12
2019-03-06T10:45:43.928Z,9.20
2019-03-06T10:48:14.469Z,9.29
2019-03-06T10:50:44.978Z,9.24
2019-03-06T10:53:15.525Z,9.36
2019-03-06T10:55:46.036Z,9.46
2019-03-06T10:58:16.575Z,9.43
2019-03-06T11:00:51.674Z,9.55
2019-03-06T11:03:23.936Z,9.61
2019-03-06T11:05:54.427Z,9.71
2019-03-06T11:08:25.106Z,9.85
2019-03-06T11:10:55.735Z,9.96
2019-03-06T11:13:26.359Z,9.99
2019-03-06T11:15:56.930Z,10.06
2019-03-06T11:18:27.481Z,10.27
2019-03-06T11:20:58.011Z,10.55
2019-03-06T11:23:29.122Z,10.58
2019-03-06T11:25:59.580Z,10.60
2019-03-06T11:28:30.071Z,10.58
2019-03-06T11:31:00.597Z,10.54
2019-03-06T11:33:31.312Z,10.60
2019-03-06T11:36:02.039Z,10.68
2019-03-06T11:38:32.577Z,10.78
2019-03-06T11:41:02.999Z,10.77
2019-03-06T11:43:33.548Z,10.81
2019-03-06T11:46:04.149Z,10.80
2019-03-06T11:48:34.759Z,10.99
2019-03-06T11:51:05.498Z,11.09
2019-03-06T11:53:36.093Z,11.19
2019-03-06T11:56:06.603Z,11.26
2019-03-06T11:58:38.143Z,11.39
2019-03-06T12:01:11.946Z,11.53
2019-03-06T12:03:43.228Z,11.53
2019-03-06T12:06:13.826Z,11.47
2019-03-06T12:08:45.818Z,11.67
2019-03-06T12:11:16.554Z,11.98
2019-03-06T12:13:47.087Z,12.19
2019-03-06T12:16:18.846Z,13.03
2019-03-06T12:18:49.407Z,14.28
2019-03-06T12:21:20.072Z,15.22
2019-03-06T12:23:51.290Z,16.07
2019-03-06T12:26:22.149Z,15.42
2019-03-06T12:28:52.698Z,14.70
2019-03-06T12:31:23.134Z,15.17
2019-03-06T12:33:53.696Z,16.41
2019-03-06T12:36:24.126Z,17.38
2019-03-06T12:38:54.616Z,17.28
2019-03-06T12:41:25.069Z,19.57
2019-03-06T12:43:55.549Z,20.61
2019-03-06T12:46:25.997Z,20.83
2019-03-06T12:48:58.418Z,20.87
2019-03-06T12:51:29.239Z,21.12
2019-03-06T12:53:59.714Z,21.89
2019-03-06T12:56:31.129Z,22.00
2019-03-06T12:59:01.634Z,21.94
2019-03-06T13:01:33.263Z,21.85
2019-03-06T13:04:03.976Z,22.49
2019-03-06T13:06:38.271Z,22.56
2019-03-06T13:09:14.578Z,21.90
2019-03-06T13:11:45.184Z,21.64
2019-03-06T13:14:16.673Z,21.59
2019-03-06T13:16:50.495Z,22.04
2019-03-06T13:19:22.528Z,23.66
2019-03-06T13:21:53.096Z,22.50
2019-03-06T13:24:23.631Z,23.76
2019-03-06T13:26:54.293Z,24.24
2019-03-06T13:29:25.958Z,23.59
2019-03-06T13:31:56.567Z,23.37
2019-03-06T13:34:28.736Z,23.81
2019-03-06T13:36:59.272Z,23.30
2019-03-06T13:39:29.981Z,21.43
2019-03-06T13:42:00.578Z,21.33
2019-03-06T13:44:31.114Z,20.19
2019-03-06T13:47:01.628Z,21.38
2019-03-06T13:49:33.077Z,21.37
2019-03-06T13:52:03.601Z,21.49
2019-03-06T13:54:34.322Z,21.18
2019-03-06T13:57:04.840Z,20.44
2019-03-06T13:59:35.384Z,20.21
2019-03-06T14:02:05.914Z,20.34
2019-03-06T14:04:36.665Z,20.25
2019-03-06T14:07:07.096Z,20.09
2019-03-06T14:09:37.586Z,19.42
2019-03-06T14:12:08.311Z,18.49
2019-03-06T14:14:38.861Z,17.32
2019-03-06T14:17:14.901Z,16.69
2019-03-06T14:19:45.725Z,16.28
2019-03-06T14:22:16.247Z,16.35
2019-03-06T14:24:46.978Z,16.10
2019-03-06T14:27:17.413Z,15.92
2019-03-06T14:29:48.022Z,15.55
2019-03-06T14:32:18.549Z,15.29
2019-03-06T14:34:49.026Z,14.96
2019-03-06T14:37:19.474Z,14.62
2019-03-06T14:39:50.009Z,14.49
2019-03-06T14:42:20.442Z,14.05
2019-03-06T14:44:50.918Z,13.79
2019-03-06T14:47:23.025Z,13.56
2019-03-06T14:49:53.487Z,13.37
2019-03-06T14:52:24.002Z,13.18
2019-03-06T14:54:54.562Z,13.11
2019-03-06T14:57:26.079Z,13.03
2019-03-06T14:59:56.806Z,13.10
2019-03-06T15:02:27.302Z,13.04
2019-03-06T15:04:57.780Z,13.12
2019-03-06T15:07:28.368Z,12.86
2019-03-06T15:09:59.004Z,12.85
2019-03-06T15:12:31.481Z,12.81
2019-03-06T15:15:01.812Z,12.82
2019-03-06T15:17:32.331Z,12.66
2019-03-06T15:20:02.986Z,12.54
2019-03-06T15:22:38.669Z,12.44
2019-03-06T15:25:11.509Z,12.47
2019-03-06T15:27:42.035Z,12.40
2019-03-06T15:30:14.683Z,12.23
2019-03-06T15:32:45.219Z,12.13
2019-03-06T15:35:15.926Z,11.97
2019-03-06T15:37:46.462Z,11.89
2019-03-06T15:40:22.925Z,11.74
2019-03-06T15:42:53.451Z,11.79
2019-03-06T15:45:25.583Z,11.66
2019-03-06T15:47:56.296Z,11.55
2019-03-06T15:50:27.341Z,11.42
2019-03-06T15:52:58.200Z,11.36
2019-03-06T15:55:29.184Z,11.19
2019-03-06T15:57:59.703Z,11.12
2019-03-06T16:00:46.291Z,10.91
2019-03-06T16:03:14.645Z,10.73
2019-03-06T16:05:45.434Z,10.59
2019-03-06T16:08:15.935Z,10.43
2019-03-06T16:10:46.793Z,10.29
2019-03-06T16:13:17.222Z,10.20
2019-03-06T16:15:47.771Z,10.06
2019-03-06T16:18:20.186Z,9.92
2019-03-06T16:20:51.800Z,9.78
2019-03-06T16:23:22.610Z,9.63
2019-03-06T16:25:53.077Z,9.54
2019-03-06T16:28:23.529Z,9.41
2019-03-06T16:30:53.991Z,9.23
2019-03-06T16:33:24.494Z,9.08
2019-03-06T16:35:56.355Z,8.96
2019-03-06T16:38:26.912Z,8.82
2019-03-06T16:40:57.416Z,8.67
2019-03-06T16:43:27.924Z,8.53
2019-03-06T16:45:59.749Z,8.46
2019-03-06T16:48:30.452Z,8.39
2019-03-06T16:51:00.987Z,8.34
2019-03-06T16:53:31.554Z,8.28
2019-03-06T16:56:02.227Z,8.11
2019-03-06T16:58:32.773Z,8.00
2019-03-06T17:01:03.881Z,7.88
2019-03-06T17:03:34.394Z,7.85
2019-03-06T17:06:05.006Z,7.81
2019-03-06T17:08:36.606Z,7.71
2019-03-06T17:11:07.132Z,7.61
2019-03-06T17:13:37.655Z,7.51
2019-03-06T17:16:08.200Z,7.46
2019-03-06T17:18:38.764Z,7.41
2019-03-06T17:21:09.335Z,7.37
2019-03-06T17:23:40.167Z,7.26
2019-03-06T17:26:12.233Z,7.20
2019-03-06T17:28:42.952Z,7.10
2019-03-06T17:31:13.632Z,7.09
2019-03-06T17:33:44.350Z,7.04
2019-03-06T17:36:15.115Z,7.06
2019-03-06T17:38:45.792Z,7.09
2019-03-06T17:41:16.501Z,7.11
2019-03-06T17:43:47.644Z,7.19
2019-03-06T17:46:20.081Z,7.18
2019-03-06T17:48:50.832Z,7.18
2019-03-06T17:51:22.378Z,7.22
2019-03-06T17:53:53.111Z,7.14
2019-03-06T17:56:24.401Z,7.06
2019-03-06T17:58:55.439Z,7.00
2019-03-06T18:01:27.012Z,6.99
2019-03-06T18:04:02.352Z,6.95
2019-03-06T18:06:33.345Z,6.89
2019-03-06T18:09:04.510Z,6.85
2019-03-06T18:11:36.659Z,6.78
2019-03-06T18:14:07.077Z,6.77
2019-03-06T18:16:37.715Z,6.77
2019-03-06T18:19:08.352Z,6.67
2019-03-06T18:21:38.824Z,6.66
2019-03-06T18:24:09.659Z,6.69
2019-03-06T18:26:40.307Z,6.57
2019-03-06T18:29:10.899Z,6.58
2019-03-06T18:31:41.582Z,6.56
2019-03-06T18:34:12.082Z,6.62
2019-03-06T18:36:42.621Z,6.58
2019-03-06T18:39:14.732Z,6.49
2019-03-06T18:41:45.283Z,6.42
2019-03-06T18:44:16.308Z,6.33
2019-03-06T18:46:47.106Z,6.28
2019-03-06T18:49:17.555Z,6.19
2019-03-06T18:51:49.498Z,6.18
2019-03-06T18:54:20.551Z,6.16
2019-03-06T18:56:51.435Z,6.14
2019-03-06T18:59:21.941Z,6.13
2019-03-06T19:01:52.423Z,6.16
2019-03-06T19:04:22.925Z,6.15
2019-03-06T19:06:53.455Z,6.13
2019-03-06T19:09:24.054Z,6.17
2019-03-06T19:11:54.598Z,6.22
2019-03-06T19:14:25.046Z,6.25
2019-03-06T19:16:55.601Z,6.30
2019-03-06T19:19:26.046Z,6.39
2019-03-06T19:21:56.613Z,6.38
2019-03-06T19:24:27.421Z,6.39
2019-03-06T19:26:57.918Z,6.37
2019-03-06T19:29:28.474Z,6.34
2019-03-06T19:31:58.956Z,6.26
2019-03-06T19:34:29.398Z,6.19
2019-03-06T19:37:00.066Z,6.15
2019-03-06T19:39:30.517Z,6.11
2019-03-06T19:42:01.003Z,6.10
2019-03-06T19:44:31.653Z,6.09
2019-03-06T19:47:02.141Z,6.09
2019-03-06T19:49:32.728Z,6.08
2019-03-06T19:52:03.257Z,6.11
2019-03-06T19:54:34.649Z,6.17
2019-03-06T19:57:05.208Z,6.17
2019-03-06T19:59:35.645Z,6.20
2019-03-06T20:02:06.209Z,6.22
2019-03-06T20:04:36.845Z,6.19
2019-03-06T20:07:07.305Z,6.15
2019-03-06T20:09:37.812Z,6.13
2019-03-06T20:12:08.716Z,6.06
2019-03-06T20:14:39.212Z,6.04
2019-03-06T20:17:09.689Z,5.93
2019-03-06T20:19:41.201Z,5.85
2019-03-06T20:22:11.666Z,5.74
2019-03-06T20:24:42.179Z,5.64
2019-03-06T20:27:12.770Z,5.56
2019-03-06T20:29:43.286Z,5.49
2019-03-06T20:32:13.959Z,5.46
2019-03-06T20:34:44.461Z,5.47
2019-03-06T20:37:14.984Z,5.39
2019-03-06T20:39:45.444Z,5.30
2019-03-06T20:42:15.969Z,5.21
2019-03-06T20:44:46.491Z,5.17
2019-03-06T20:47:16.966Z,5.15
2019-03-06T20:49:47.480Z,5.12
2019-03-06T20:52:18.008Z,5.08
2019-03-06T20:54:48.513Z,5.09
2019-03-06T20:57:19.056Z,5.11
2019-03-06T20:59:49.744Z,5.14
2019-03-06T21:02:20.325Z,5.13
2019-03-06T21:04:50.864Z,5.17
2019-03-06T21:07:21.336Z,5.21
2019-03-06T21:09:51.857Z,5.27
2019-03-06T21:12:22.327Z,5.35
2019-03-06T21:14:53.042Z,5.38
2019-03-06T21:17:23.565Z,5.37
2019-03-06T21:19:54.091Z,5.38
2019-03-06T21:22:24.564Z,5.40
2019-03-06T21:24:55.045Z,5.38
2019-03-06T21:27:25.559Z,5.41
2019-03-06T21:29:56.003Z,5.38
2019-03-06T21:32:26.652Z,5.44
2019-03-06T21:34:57.102Z,5.47
2019-03-06T21:37:27.586Z,5.48
2019-03-06T21:39:58.034Z,5.46
2019-03-06T21:42:28.710Z,5.44
2019-03-06T21:44:59.232Z,5.40
2019-03-06T21:47:29.872Z,5.34
2019-03-06T21:50:01.385Z,5.34
2019-03-06T21:52:33.436Z,5.39
2019-03-06T21:55:04.875Z,5.45
2019-03-06T21:57:35.400Z,5.49
2019-03-06T22:00:15.608Z,5.48
2019-03-06T22:02:46.448Z,5.47
2019-03-06T22:05:17.247Z,5.51
2019-03-06T22:07:50.194Z,5.48
2019-03-06T22:10:19.922Z,5.44
2019-03-06T22:12:50.444Z,5.44
2019-03-06T22:15:24.219Z,5.44
2019-03-06T22:17:54.919Z,5.42
2019-03-06T22:20:25.435Z,5.37
2019-03-06T22:22:55.992Z,5.34
2019-03-06T22:25:26.504Z,5.35
2019-03-06T22:27:56.955Z,5.28
2019-03-06T22:30:27.382Z,5.22
2019-03-06T22:32:59.678Z,5.19
2019-03-06T22:35:30.220Z,5.24
2019-03-06T22:38:00.868Z,5.30
2019-03-06T22:40:31.317Z,5.25
2019-03-06T22:43:02.955Z,5.28
2019-03-06T22:45:33.460Z,5.22
2019-03-06T22:48:04.122Z,5.19
2019-03-06T22:50:34.939Z,5.12
2019-03-06T22:53:05.521Z,5.06
2019-03-06T22:55:36.043Z,5.06
2019-03-06T22:58:06.501Z,5.11
2019-03-06T23:00:56.497Z,5.11
2019-03-06T23:03:28.685Z,5.17
2019-03-06T23:05:59.188Z,5.20
2019-03-06T23:08:29.673Z,5.24
2019-03-06T23:11:00.237Z,5.14
2019-03-06T23:13:30.770Z,5.10
2019-03-06T23:16:01.191Z,5.11
2019-03-06T23:18:31.719Z,5.08
2019-03-06T23:21:02.166Z,5.08
2019-03-06T23:23:32.689Z,5.05
2019-03-06T23:26:03.195Z,5.06
2019-03-06T23:28:33.704Z,5.07
2019-03-06T23:31:04.196Z,5.03
2019-03-06T23:33:34.668Z,5.01
2019-03-06T23:36:05.096Z,5.02
2019-03-06T23:38:35.733Z,5.08
2019-03-06T23:41:06.257Z,5.11
2019-03-06T23:43:36.720Z,5.10
2019-03-06T23:46:07.152Z,5.07
2019-03-06T23:48:37.616Z,5.14
2019-03-06T23:51:10.937Z,5.10
2019-03-06T23:53:43.028Z,5.06
2019-03-06T23:56:13.475Z,5.08
2019-03-06T23:58:43.999Z,5.12
